Time;durP1;ratioP1;P1;durP2;ratioP2;P2;SDS_P1;SDS_P2;PMS_P1;PMS_P2;Temp;Humidity;BMP_temperature;BMP_pressure;BME280_temperature;BME280_humidity;BME280_pressure;Samples;Min_cycle;Max_cycle;Signal;HPM_P1;HPM_P2
2021/03/12 00:02:12;;;;;;;294.77;143.07;;;102.40;2227.20;;;;;;4856687;29;20026;-81
2021/03/12 00:05:45;;;;;;;196.73;114.50;;;77.60;2227.20;;;;;;4826745;29;20117;-81
2021/03/12 00:08:56;;;;;;;184.93;103.07;;;77.40;2227.20;;;;;;4807496;30;20034;-81
2021/03/12 00:12:27;;;;;;;145.05;87.97;;;77.30;2227.20;;;;;;4789334;30;20035;-81
2021/03/12 00:33:02;;;;;;;148.52;92.28;;;77.40;2227.20;;;;;;4699129;30;20033;-81
2021/03/12 01:05:13;;;;;;;96.40;57.88;;;77.10;2227.20;;;;;;4808198;29;20127;-81
2021/03/12 01:21:51;;;;;;;85.50;53.55;;;76.80;2227.20;;;;;;4902591;29;20008;-81
2021/03/12 01:36:12;;;;;;;92.80;57.05;;;77.10;2227.20;;;;;;4801931;30;20091;-79
2021/03/12 02:22:13;;;;;;;59.60;35.17;;;77.20;2227.20;;;;;;4949795;29;20030;-79
2021/03/12 02:29:03;;;;;;;66.95;37.85;;;77.40;2227.20;;;;;;4854334;29;20564;-80
2021/03/12 02:32:28;;;;;;;60.05;38.45;;;77.10;2227.20;;;;;;4818373;29;20038;-80
2021/03/12 02:36:30;;;;;;;56.78;36.40;;;77.30;2227.20;;;;;;4818794;29;20042;-79
2021/03/12 02:43:26;;;;;;;48.72;28.42;;;77.10;2227.20;;;;;;4732194;30;20170;-82
2021/03/12 02:50:11;;;;;;;37.45;25.95;;;77.10;2227.20;;;;;;4771972;30;20039;-81
2021/03/12 02:53:25;;;;;;;38.97;24.88;;;77.10;2227.20;;;;;;4765637;30;20040;-79
2021/03/12 03:04:18;;;;;;;47.58;27.15;;;77.10;2227.20;;;;;;4768764;30;20096;-81
2021/03/12 03:07:45;;;;;;;39.55;24.27;;;77.10;2227.20;;;;;;4753590;30;20029;-80
2021/03/12 03:11:20;;;;;;;33.15;21.90;;;77.10;2227.20;;;;;;4661394;30;20050;-81
2021/03/12 03:18:30;;;;;;;51.78;27.38;;;77.40;2227.20;;;;;;4655943;30;20047;-80
2021/03/12 03:28:46;;;;;;;67.50;35.75;;;77.50;2227.20;;;;;;4632350;31;20043;-79
2021/03/12 03:53:40;;;;;;;60.05;36.20;;;77.00;2227.20;;;;;;4650572;30;20046;-80
2021/03/12 04:07:17;;;;;;;49.20;28.60;;;77.30;2227.20;;;;;;4683976;30;20037;-79
2021/03/12 04:14:23;;;;;;;48.08;29.20;;;77.30;2227.20;;;;;;4688219;30;20652;-80
2021/03/12 04:28:10;;;;;;;110.70;62.28;;;77.20;2227.20;;;;;;4787375;30;20044;-80
2021/03/12 06:30:30;;;;;;;227.52;148.05;;;102.50;2227.20;;;;;;4939315;29;20406;-80
2021/03/12 06:40:57;;;;;;;223.43;133.35;;;77.70;2227.20;;;;;;4825667;29;20150;-80
2021/03/12 06:47:47;;;;;;;160.98;106.70;;;102.40;2227.20;;;;;;4826139;29;20048;-80
2021/03/12 06:51:35;;;;;;;134.45;93.25;;;102.40;2227.20;;;;;;4808832;29;20027;-80
2021/03/12 06:55:11;;;;;;;124.18;82.57;;;102.40;2227.20;;;;;;4771748;30;20059;-80
2021/03/12 07:09:03;;;;;;;170.45;112.53;;;102.70;2227.20;;;;;;4759848;29;20051;-80
2021/03/12 07:12:25;;;;;;;144.52;95.65;;;102.50;2227.20;;;;;;4783002;30;20056;-79
2021/03/12 07:15:14;;;;;;;147.45;96.15;;;102.70;2227.20;;;;;;4780671;30;20039;-79
2021/03/12 07:17:41;;;;;;;150.13;100.32;;;102.80;2227.20;;;;;;4766567;29;20385;-79
2021/03/12 07:20:09;;;;;;;173.23;104.63;;;102.90;2227.20;;;;;;4840786;29;20042;-78
2021/03/12 07:22:47;;;;;;;112.47;68.25;;;103.00;2227.20;;;;;;4873008;29;20040;-78
2021/03/12 07:25:15;;;;;;;114.20;68.40;;;103.10;2227.20;;;;;;4881303;29;20037;-79
2021/03/12 07:27:48;;;;;;;100.38;62.65;;;103.10;2227.20;;;;;;4907488;29;20063;-78
2021/03/12 07:30:15;;;;;;;;;;;103.30;2227.20;;;;;;4908366;29;20027;-78
2021/03/12 07:32:45;;;;;;;76.15;48.03;;;128.00;2252.80;;;;;;4925600;29;19914;-78
2021/03/12 07:35:12;;;;;;;74.85;49.85;;;103.20;2227.20;;;;;;4910044;29;20039;-77
2021/03/12 07:37:38;;;;;;;80.03;49.97;;;128.20;2252.80;;;;;;4928297;29;20030;-78
2021/03/12 07:40:05;;;;;;;54.55;37.03;;;128.40;2252.80;;;;;;4931404;29;20032;-79
2021/03/12 07:42:34;;;;;;;74.55;47.35;;;128.00;2252.80;;;;;;4951411;29;20042;-77
2021/03/12 07:45:00;;;;;;;87.40;57.30;;;128.30;2252.80;;;;;;4934234;29;20028;-78
2021/03/12 07:47:27;;;;;;;96.68;62.92;;;128.40;2252.80;;;;;;4936170;29;20028;-79
2021/03/12 07:49:54;;;;;;;64.45;43.67;;;153.60;2252.80;;;;;;4936905;29;20059;-79
2021/03/12 07:52:53;;;;;;;65.55;43.55;;;128.70;2252.80;;;;;;4954640;29;20075;-80
2021/03/12 07:55:37;;;;;;;71.75;47.58;;;128.80;2252.80;;;;;;4935317;29;20547;-78
2021/03/12 07:58:09;;;;;;;99.32;61.38;;;128.90;2252.80;;;;;;4935449;29;20077;-79
2021/03/12 08:00:53;;;;;;;81.75;56.05;;;153.70;2252.80;;;;;;4935751;29;20031;-79
2021/03/12 08:04:22;;;;;;;88.68;58.78;;;153.90;2252.80;;;;;;4952279;29;20020;-78
2021/03/12 08:07:42;;;;;;;112.22;70.40;;;154.00;2252.80;;;;;;4897814;29;20033;-78
2021/03/12 08:14:18;;;;;;;70.35;42.50;;;154.20;2252.80;;;;;;4868508;29;20063;-79
2021/03/12 08:17:32;;;;;;;73.68;50.53;;;154.30;2252.80;;;;;;4894541;29;20085;-79
2021/03/12 08:29:45;;;;;;;50.70;35.38;;;154.40;2252.80;;;;;;4991491;26;20063;-81
2021/03/12 08:36:25;;;;;;;34.70;25.00;;;154.50;2252.80;;;;;;4969388;28;19977;-80
2021/03/12 08:39:34;;;;;;;41.78;24.23;;;154.40;2252.80;;;;;;4981249;28;20050;-81
2021/03/12 08:50:20;;;;;;;41.67;29.27;;;179.30;2252.80;;;;;;4915870;29;20635;-81
2021/03/12 08:56:49;;;;;;;43.35;30.67;;;179.50;2252.80;;;;;;4929525;26;20398;-81
2021/03/12 09:00:06;;;;;;;58.95;40.80;;;179.60;2252.80;;;;;;4904672;29;20048;-84
2021/03/12 09:02:59;;;;;;;61.05;42.15;;;179.80;2252.80;;;;;;4864727;29;20048;-83
2021/03/12 09:05:37;;;;;;;54.42;37.10;;;179.80;2252.80;;;;;;4915671;29;20024;-83
2021/03/12 09:08:49;;;;;;;60.15;39.95;;;179.90;2252.80;;;;;;4915758;29;20055;-83
2021/03/12 09:12:24;;;;;;;38.47;27.85;;;179.90;2252.80;;;;;;4859153;29;20021;-83
2021/03/12 09:18:56;;;;;;;52.25;39.33;;;180.10;2252.80;;;;;;4845885;29;20420;-81
2021/03/12 09:21:46;;;;;;;44.22;30.55;;;204.80;2252.80;;;;;;4859683;29;20038;-84
2021/03/12 09:28:18;;;;;;;79.80;54.25;;;204.90;2252.80;;;;;;4855755;29;20561;-85
2021/03/12 09:31:39;;;;;;;49.90;31.85;;;205.00;2252.80;;;;;;4868283;29;20045;-83
2021/03/12 09:34:39;;;;;;;41.95;29.52;;;205.10;2201.60;;;;;;4822722;29;20133;-83
2021/03/12 09:40:42;;;;;;;34.22;23.48;;;205.20;2124.80;;;;;;4894479;29;20071;-80
2021/03/12 09:43:09;;;;;;;30.85;22.55;;;205.30;2150.40;;;;;;4933591;29;20042;-82
2021/03/12 09:45:36;;;;;;;34.35;22.67;;;205.40;2150.40;;;;;;4934286;29;20482;-81
2021/03/12 09:48:04;;;;;;;41.58;22.52;;;205.40;2176.00;;;;;;4934103;29;20024;-78
2021/03/12 09:50:36;;;;;;;32.85;20.13;;;205.50;2048.00;;;;;;4933738;29;20107;-79
2021/03/12 09:53:08;;;;;;;35.42;24.08;;;205.60;2073.60;;;;;;4933937;29;20028;-86
2021/03/12 09:55:35;;;;;;;42.38;25.55;;;205.60;2150.40;;;;;;4943677;29;20039;-86
2021/03/12 09:58:11;;;;;;;20.88;17.10;;;205.60;2073.60;;;;;;4940657;28;20030;-83
2021/03/12 10:00:37;;;;;;;23.42;17.35;;;205.60;2022.40;;;;;;4953379;28;20086;-80
2021/03/12 10:03:04;;;;;;;24.67;19.17;;;205.60;2048.00;;;;;;4956225;28;20038;-82
2021/03/12 10:05:31;;;;;;;25.88;17.40;;;205.60;2048.00;;;;;;4956181;28;20492;-81
2021/03/12 10:08:05;;;;;;;19.63;13.88;;;205.60;2099.20;;;;;;4955395;28;20034;-83
2021/03/12 10:10:33;;;;;;;23.27;15.18;;;205.60;1945.60;;;;;;4959719;28;20030;-81
2021/03/12 10:13:02;;;;;;;28.77;23.08;;;205.60;1971.20;;;;;;4959080;28;20034;-79
2021/03/12 10:15:39;;;;;;;25.95;19.40;;;205.70;2073.60;;;;;;4960609;28;20031;-78
2021/03/12 10:18:06;;;;;;;47.25;33.70;;;205.70;2099.20;;;;;;4955303;29;20030;-84
2021/03/12 10:20:36;;;;;;;60.70;42.00;;;205.70;2022.40;;;;;;4942225;29;20521;-83
2021/03/12 10:23:08;;;;;;;76.63;52.30;;;205.70;1996.80;;;;;;4939862;29;20038;-82
2021/03/12 10:25:39;;;;;;;62.92;44.15;;;230.40;2022.40;;;;;;4940907;29;20023;-87
2021/03/12 10:28:08;;;;;;;43.20;31.17;;;230.40;2099.20;;;;;;4956025;28;20027;-87
2021/03/12 10:30:40;;;;;;;175.57;116.25;;;230.50;2022.40;;;;;;4960526;28;20121;-83
2021/03/12 10:33:19;;;;;;;107.90;69.95;;;230.50;2022.40;;;;;;4959668;28;20053;-84
2021/03/12 10:35:56;;;;;;;53.22;35.85;;;230.50;1996.80;;;;;;4960639;28;20030;-85
2021/03/12 10:38:24;;;;;;;68.18;48.65;;;230.50;2022.40;;;;;;4960369;28;20117;-82
2021/03/12 10:40:59;;;;;;;61.45;43.63;;;230.60;2048.00;;;;;;4959993;28;20130;-86
2021/03/12 10:43:27;;;;;;;81.53;50.83;;;230.60;2048.00;;;;;;4960902;28;20362;-81
2021/03/12 10:46:08;;;;;;;124.70;72.38;;;230.70;2176.00;;;;;;4960149;28;20063;-85
2021/03/12 10:48:45;;;;;;;79.72;52.80;;;230.70;1971.20;;;;;;4959980;28;20026;-82
2021/03/12 10:51:13;;;;;;;67.90;45.97;;;230.70;2048.00;;;;;;4959919;28;20026;-84
2021/03/12 10:53:45;;;;;;;76.32;50.92;;;230.70;2073.60;;;;;;4957376;28;20026;-82
2021/03/12 10:56:11;;;;;;;79.30;50.90;;;230.80;2150.40;;;;;;4941512;29;20055;-84
2021/03/12 10:58:38;;;;;;;55.17;39.08;;;230.90;2048.00;;;;;;4939853;29;20031;-81
2021/03/12 11:01:14;;;;;;;56.53;38.78;;;230.90;1996.80;;;;;;4941063;29;20063;-84
2021/03/12 11:03:43;;;;;;;51.70;35.20;;;230.90;1996.80;;;;;;4941020;29;20035;-80
2021/03/12 11:06:10;;;;;;;51.30;37.30;;;230.90;1971.20;;;;;;4940664;29;20039;-79
2021/03/12 11:08:36;;;;;;;53.92;38.13;;;231.00;1996.80;;;;;;4940228;29;20481;-81
2021/03/12 11:11:05;;;;;;;57.72;37.72;;;231.10;1971.20;;;;;;4940699;29;20038;-89
2021/03/12 11:13:32;;;;;;;45.53;31.33;;;231.30;1920.00;;;;;;4941303;29;20083;-90
2021/03/12 11:15:58;;;;;;;39.40;26.13;;;256.20;1945.60;;;;;;4941006;29;20508;-90
2021/03/12 11:18:30;;;;;;;43.30;29.27;;;256.30;1868.80;;;;;;4941031;29;20114;-88
2021/03/12 11:20:58;;;;;;;46.88;30.55;;;256.40;1945.60;;;;;;4941314;28;20090;-90
2021/03/12 11:23:24;;;;;;;43.92;31.05;;;256.50;1843.20;;;;;;4940335;29;20212;-90
2021/03/12 11:25:52;;;;;;;43.25;29.30;;;256.30;1817.60;;;;;;4940910;29;20035;-90
2021/03/12 11:28:17;;;;;;;52.03;35.80;;;256.60;1792.00;;;;;;4940734;29;20037;-89
2021/03/12 11:30:43;;;;;;;45.10;33.20;;;256.60;1920.00;;;;;;4940458;29;20118;-90
2021/03/12 11:33:10;;;;;;;51.80;38.47;;;256.70;1868.80;;;;;;4953837;28;20037;-89
2021/03/12 11:35:36;;;;;;;37.00;25.35;;;256.80;1920.00;;;;;;4957868;28;20417;-89
2021/03/12 11:38:02;;;;;;;32.00;24.42;;;256.90;1817.60;;;;;;4960029;28;20031;-92
2021/03/12 11:40:28;;;;;;;53.58;32.63;;;256.90;1843.20;;;;;;4954998;28;20038;-85
2021/03/12 11:42:54;;;;;;;37.08;24.83;;;256.90;1792.00;;;;;;4957668;28;20027;-85
2021/03/12 11:45:20;;;;;;;30.00;17.48;;;256.90;1817.60;;;;;;4959262;28;20022;-82
2021/03/12 11:47:47;;;;;;;19.10;14.45;;;256.80;1766.40;;;;;;4959051;28;20023;-81
2021/03/12 11:50:17;;;;;;;25.25;18.25;;;256.70;1689.60;;;;;;4958778;28;20543;-82
2021/03/12 11:52:44;;;;;;;31.92;21.88;;;256.70;1843.20;;;;;;4959095;28;20073;-82
2021/03/12 11:55:10;;;;;;;20.30;14.48;;;256.80;1868.80;;;;;;4959133;28;20061;-81
2021/03/12 11:57:37;;;;;;;24.42;20.10;;;256.80;1612.80;;;;;;4958641;28;20030;-82
2021/03/12 12:00:08;;;;;;;32.47;22.98;;;256.90;1817.60;;;;;;4958919;28;20062;-81
2021/03/12 12:02:35;;;;;;;34.72;22.23;;;281.70;1792.00;;;;;;4958871;28;20074;-85
2021/03/12 12:05:02;;;;;;;30.85;21.73;;;281.70;1766.40;;;;;;4958777;28;20027;-82
2021/03/12 12:07:28;;;;;;;28.98;22.73;;;281.70;1817.60;;;;;;4959034;28;20038;-81
2021/03/12 12:09:54;;;;;;;26.52;20.27;;;281.70;1868.80;;;;;;4958846;28;20121;-86
2021/03/12 12:12:20;;;;;;;34.72;23.67;;;256.80;1689.60;;;;;;4958688;28;20026;-86
2021/03/12 12:14:47;;;;;;;28.52;22.65;;;256.90;1740.80;;;;;;4959507;28;20133;-87
2021/03/12 12:17:13;;;;;;;50.20;29.33;;;256.90;1792.00;;;;;;4958289;28;20027;-86
2021/03/12 12:19:40;;;;;;;61.53;39.33;;;281.60;1843.20;;;;;;4958435;28;20035;-88
2021/03/12 12:22:07;;;;;;;36.85;26.50;;;281.60;1894.40;;;;;;4958967;28;20023;-89
2021/03/12 12:24:33;;;;;;;19.27;16.05;;;281.70;1817.60;;;;;;4959051;28;20023;-89
2021/03/12 12:26:59;;;;;;;28.00;17.90;;;256.90;1638.40;;;;;;4958869;28;20030;-89
2021/03/12 12:29:25;;;;;;;29.63;22.80;;;256.90;1638.40;;;;;;4959781;28;20026;-89
2021/03/12 12:31:51;;;;;;;38.67;25.05;;;256.90;1740.80;;;;;;4959191;28;20069;-89
2021/03/12 12:34:17;;;;;;;47.10;28.67;;;256.90;1766.40;;;;;;4958284;28;20129;-85
2021/03/12 12:36:43;;;;;;;21.33;16.38;;;281.60;1843.20;;;;;;4959427;28;20058;-88
2021/03/12 12:39:09;;;;;;;19.52;16.60;;;281.70;1817.60;;;;;;4965310;28;20027;-87
2021/03/12 12:41:39;;;;;;;21.55;13.85;;;281.70;1792.00;;;;;;4964939;28;20026;-89
2021/03/12 12:44:09;;;;;;;29.05;20.42;;;281.60;1740.80;;;;;;4960038;28;20031;-87
2021/03/12 12:46:36;;;;;;;28.50;19.60;;;281.70;1766.40;;;;;;4958286;28;20042;-89
2021/03/12 12:49:03;;;;;;;32.88;24.48;;;256.90;1740.80;;;;;;4959053;28;20477;-89
2021/03/12 12:51:29;;;;;;;37.90;26.45;;;281.90;1766.40;;;;;;4958382;28;20058;-89
2021/03/12 12:53:55;;;;;;;29.38;23.15;;;282.10;1792.00;;;;;;4958153;28;20041;-87
2021/03/12 12:56:21;;;;;;;51.90;32.65;;;282.20;1766.40;;;;;;4958333;28;20051;-89
2021/03/12 12:58:46;;;;;;;52.38;34.70;;;282.10;1766.40;;;;;;4958096;28;20031;-88
2021/03/12 13:01:13;;;;;;;72.10;50.53;;;282.20;1817.60;;;;;;4957932;28;20073;-88
2021/03/12 13:03:39;;;;;;;48.63;31.45;;;282.20;1843.20;;;;;;4958017;28;20038;-86
2021/03/12 13:06:05;;;;;;;96.35;63.75;;;282.10;1740.80;;;;;;4957901;28;20058;-86
2021/03/12 13:08:32;;;;;;;44.70;31.77;;;282.20;1817.60;;;;;;4957802;28;20062;-88
2021/03/12 13:11:03;;;;;;;41.55;31.73;;;282.20;1766.40;;;;;;4958066;28;20072;-87
2021/03/12 13:13:29;;;;;;;38.15;28.63;;;282.30;1843.20;;;;;;4958253;28;20030;-87
2021/03/12 13:15:57;;;;;;;40.30;25.27;;;282.40;1740.80;;;;;;4957900;28;20539;-87
2021/03/12 13:18:24;;;;;;;599.70;410.42;;;282.40;1766.40;;;;;;4958097;28;20070;-86
2021/03/12 13:20:54;;;;;;;69.22;44.55;;;282.40;1792.00;;;;;;4957662;28;20053;-88
2021/03/12 13:23:21;;;;;;;70.13;34.55;;;282.50;1740.80;;;;;;4957871;28;20043;-87
2021/03/12 13:25:47;;;;;;;32.38;19.48;;;282.50;1664.00;;;;;;4957934;28;20512;-87
2021/03/12 13:28:13;;;;;;;25.20;16.00;;;282.30;1766.40;;;;;;4957786;28;20038;-86
2021/03/12 13:30:39;;;;;;;25.23;16.77;;;307.40;1689.60;;;;;;4955816;28;20113;-87
2021/03/12 13:33:05;;;;;;;34.55;21.75;;;307.60;1689.60;;;;;;4956076;28;20034;-84
2021/03/12 13:35:31;;;;;;;37.65;26.90;;;307.90;1740.80;;;;;;4947669;28;20027;-86
2021/03/12 13:37:56;;;;;;;31.52;20.45;;;308.10;1766.40;;;;;;4938071;29;20058;-85
2021/03/12 13:40:23;;;;;;;55.63;34.47;;;332.90;1843.20;;;;;;4963343;28;20023;-87
2021/03/12 13:42:49;;;;;;;52.33;30.42;;;333.10;1766.40;;;;;;4954721;28;20129;-85
2021/03/12 13:45:16;;;;;;;50.83;35.83;;;333.40;1664.00;;;;;;4959949;28;20027;-85
2021/03/12 13:47:42;;;;;;;62.15;41.50;;;333.50;1664.00;;;;;;4961664;28;20022;-85
2021/03/12 13:50:10;;;;;;;35.92;25.38;;;333.70;1689.60;;;;;;4978432;28;20027;-85
2021/03/12 13:52:37;;;;;;;26.92;18.70;;;358.40;1740.80;;;;;;4960367;28;20052;-85
2021/03/12 13:55:05;;;;;;;25.48;17.80;;;358.50;1715.20;;;;;;4978970;28;20062;-89
2021/03/12 13:57:31;;;;;;;30.92;20.35;;;358.40;1587.20;;;;;;4960609;28;20027;-86
2021/03/12 13:59:57;;;;;;;37.75;26.80;;;333.70;1561.60;;;;;;4978951;28;20039;-86
2021/03/12 14:02:22;;;;;;;32.40;23.73;;;333.60;1612.80;;;;;;4961699;28;20039;-86
2021/03/12 14:04:48;;;;;;;27.85;20.92;;;358.40;1664.00;;;;;;4961220;28;20473;-84
2021/03/12 14:07:14;;;;;;;24.88;16.20;;;358.40;1638.40;;;;;;4956392;28;20110;-81
2021/03/12 14:09:40;;;;;;;22.13;17.13;;;333.70;1587.20;;;;;;4959482;28;20022;-86
2021/03/12 14:12:06;;;;;;;28.42;20.17;;;358.40;1664.00;;;;;;4960293;28;20027;-83
2021/03/12 14:14:31;;;;;;;23.63;16.55;;;358.50;1664.00;;;;;;4960304;28;20118;-84
2021/03/12 14:16:57;;;;;;;29.33;15.70;;;358.40;1484.80;;;;;;4960585;28;20438;-81
2021/03/12 14:19:23;;;;;;;33.72;21.58;;;333.70;1612.80;;;;;;4960540;28;20527;-81
2021/03/12 14:21:49;;;;;;;39.63;23.60;;;333.70;1587.20;;;;;;4978481;28;20048;-85
2021/03/12 14:24:15;;;;;;;40.13;28.00;;;333.50;1587.20;;;;;;4976047;28;20031;-85
2021/03/12 14:26:45;;;;;;;32.25;21.23;;;333.30;1587.20;;;;;;4960542;28;20054;-85
2021/03/12 14:29:11;;;;;;;35.55;23.05;;;333.30;1689.60;;;;;;4960864;28;20038;-84
2021/03/12 14:31:37;;;;;;;32.10;20.88;;;332.90;1715.20;;;;;;4977540;28;20532;-85
2021/03/12 14:34:05;;;;;;;28.02;19.75;;;333.00;1715.20;;;;;;4977650;28;20037;-86
2021/03/12 14:36:31;;;;;;;29.35;19.83;;;332.90;1689.60;;;;;;4960795;28;20459;-85
2021/03/12 14:38:58;;;;;;;33.95;22.25;;;332.80;1638.40;;;;;;4977286;28;20041;-85
2021/03/12 14:41:27;;;;;;;35.42;21.67;;;308.10;1612.80;;;;;;4960450;28;20038;-85
2021/03/12 14:43:54;;;;;;;32.22;21.30;;;308.10;1664.00;;;;;;4960535;28;20480;-86
2021/03/12 14:46:20;;;;;;;31.15;19.92;;;308.10;1766.40;;;;;;4960360;28;20027;-85
2021/03/12 14:48:47;;;;;;;58.67;35.75;;;308.10;1766.40;;;;;;4960439;28;20035;-85
2021/03/12 14:51:15;;;;;;;49.55;31.38;;;308.00;1740.80;;;;;;4959894;28;20033;-85
2021/03/12 14:53:42;;;;;;;37.08;25.20;;;308.00;1766.40;;;;;;4960296;28;20035;-84
2021/03/12 14:56:08;;;;;;;38.80;23.42;;;307.90;1715.20;;;;;;4976363;28;20134;-84
2021/03/12 14:58:34;;;;;;;35.60;22.90;;;307.80;1792.00;;;;;;4959766;28;20114;-85
2021/03/12 15:01:00;;;;;;;38.00;25.15;;;307.80;1766.40;;;;;;4960160;28;20035;-85
2021/03/12 15:03:25;;;;;;;33.60;22.75;;;307.80;1792.00;;;;;;4977280;28;20045;-85
2021/03/12 15:05:53;;;;;;;45.25;29.77;;;307.60;1740.80;;;;;;4959527;28;20027;-85
2021/03/12 15:08:23;;;;;;;63.65;44.03;;;307.60;1740.80;;;;;;4960053;28;20536;-86
2021/03/12 15:10:48;;;;;;;54.33;37.90;;;307.50;1766.40;;;;;;4960093;28;20034;-85
2021/03/12 15:13:14;;;;;;;52.97;37.17;;;307.40;1817.60;;;;;;4976894;28;20027;-85
2021/03/12 15:15:40;;;;;;;49.00;34.80;;;307.30;1792.00;;;;;;4977122;28;20031;-85
2021/03/12 15:18:07;;;;;;;56.05;39.88;;;307.20;1817.60;;;;;;4977072;28;20027;-86
2021/03/12 15:20:33;;;;;;;58.63;40.50;;;307.20;1843.20;;;;;;4975657;28;20031;-86
2021/03/12 15:22:59;;;;;;;72.45;49.40;;;282.50;1843.20;;;;;;4975839;28;20134;-85
2021/03/12 15:25:26;;;;;;;55.03;34.35;;;282.40;1817.60;;;;;;4959760;28;20122;-85
2021/03/12 15:27:51;;;;;;;46.28;32.58;;;307.30;1843.20;;;;;;4958081;28;20118;-85
2021/03/12 15:30:20;;;;;;;57.60;37.33;;;282.30;1843.20;;;;;;4959724;28;20604;-85
2021/03/12 15:32:46;;;;;;;55.90;36.28;;;282.20;1868.80;;;;;;4959656;28;20385;-85
2021/03/12 15:35:12;;;;;;;50.97;32.60;;;282.20;1868.80;;;;;;4975451;28;20054;-86
2021/03/12 15:37:39;;;;;;;58.50;39.22;;;282.10;1868.80;;;;;;4956297;29;20031;-86
2021/03/12 15:40:06;;;;;;;69.75;45.67;;;282.20;1843.20;;;;;;4939091;29;20035;-85
2021/03/12 15:42:32;;;;;;;82.43;52.03;;;282.10;1868.80;;;;;;4939829;29;20043;-86
2021/03/12 15:44:58;;;;;;;84.75;53.92;;;282.10;1843.20;;;;;;4957232;29;20031;-86
2021/03/12 15:47:23;;;;;;;94.20;59.17;;;282.10;1894.40;;;;;;4940057;29;20027;-86
2021/03/12 15:49:49;;;;;;;106.22;70.53;;;282.00;1843.20;;;;;;4940610;29;20023;-83
2021/03/12 15:52:15;;;;;;;123.60;75.97;;;282.00;1894.40;;;;;;4957518;29;20034;-82
2021/03/12 15:54:41;;;;;;;131.93;82.45;;;282.00;1920.00;;;;;;4937674;28;20047;-83
2021/03/12 15:57:07;;;;;;;118.75;73.07;;;282.00;1894.40;;;;;;4928157;29;20503;-82
2021/03/12 15:59:33;;;;;;;116.05;76.18;;;281.90;1920.00;;;;;;4938323;29;20033;-82
2021/03/12 16:01:59;;;;;;;110.13;70.85;;;281.90;1945.60;;;;;;4933988;29;20028;-83
2021/03/12 16:04:26;;;;;;;101.65;68.55;;;281.90;1945.60;;;;;;4920196;29;20031;-81
2021/03/12 16:06:51;;;;;;;120.15;80.15;;;281.80;1945.60;;;;;;4919908;29;20381;-80
2021/03/12 16:09:17;;;;;;;122.35;79.07;;;281.80;1945.60;;;;;;4936801;29;20035;-82
2021/03/12 16:11:44;;;;;;;105.60;70.75;;;281.80;1945.60;;;;;;4920426;29;20031;-83
2021/03/12 16:14:11;;;;;;;115.88;73.90;;;281.70;1945.60;;;;;;4924044;29;20029;-80
2021/03/12 16:16:37;;;;;;;128.70;80.65;;;281.70;1945.60;;;;;;4939188;29;20054;-82
2021/03/12 16:19:04;;;;;;;120.93;79.30;;;281.70;1971.20;;;;;;4938222;29;20038;-79
2021/03/12 16:21:30;;;;;;;87.10;56.60;;;281.60;1971.20;;;;;;4939042;29;20114;-80
2021/03/12 16:23:56;;;;;;;97.57;61.35;;;281.60;1971.20;;;;;;4956234;29;20114;-79
2021/03/12 16:26:22;;;;;;;128.93;83.50;;;256.90;1920.00;;;;;;4939751;29;20447;-80
2021/03/12 16:28:49;;;;;;;121.22;74.15;;;256.90;1996.80;;;;;;4939172;29;20469;-81
2021/03/12 16:31:15;;;;;;;120.60;81.50;;;256.90;1996.80;;;;;;4956116;29;20030;-80
2021/03/12 16:33:41;;;;;;;121.53;78.30;;;256.90;1945.60;;;;;;4955973;29;20023;-81
2021/03/12 16:36:07;;;;;;;115.53;73.30;;;256.90;1971.20;;;;;;4938758;29;20106;-79
2021/03/12 16:38:33;;;;;;;96.10;66.15;;;256.80;1996.80;;;;;;4939108;29;20453;-81
2021/03/12 16:40:59;;;;;;;105.05;70.38;;;256.70;1996.80;;;;;;4939162;29;20054;-81
2021/03/12 16:43:25;;;;;;;119.25;84.13;;;256.70;2048.00;;;;;;4955890;29;20532;-78
2021/03/12 16:45:51;;;;;;;108.80;77.18;;;256.80;1996.80;;;;;;4956388;29;20031;-81
2021/03/12 16:48:17;;;;;;;130.75;84.32;;;256.90;1971.20;;;;;;4939006;29;20074;-85
2021/03/12 16:50:43;;;;;;;144.82;89.95;;;256.70;2022.40;;;;;;4938556;29;20027;-80
2021/03/12 16:53:10;;;;;;;141.27;87.68;;;256.70;2022.40;;;;;;4936924;29;20035;-78
2021/03/12 16:55:36;;;;;;;163.07;101.55;;;256.60;2022.40;;;;;;4950863;28;20050;-81
2021/03/12 16:58:02;;;;;;;159.98;104.97;;;256.50;2048.00;;;;;;4956096;28;20480;-78
2021/03/12 17:00:28;;;;;;;135.63;94.63;;;256.50;2022.40;;;;;;4958399;28;20481;-78
2021/03/12 17:02:54;;;;;;;154.50;110.40;;;256.50;2048.00;;;;;;4975032;28;20066;-79
2021/03/12 17:05:20;;;;;;;200.93;131.27;;;256.50;2022.40;;;;;;4957500;28;20118;-84
2021/03/12 17:07:46;;;;;;;167.93;111.72;;;256.40;2048.00;;;;;;4958419;28;20038;-88
2021/03/12 17:10:12;;;;;;;150.27;102.03;;;256.40;2073.60;;;;;;4958090;28;20600;-86
2021/03/12 17:12:39;;;;;;;150.45;96.30;;;256.20;2099.20;;;;;;4957408;28;20034;-86
2021/03/12 17:15:07;;;;;;;161.88;107.65;;;256.10;2073.60;;;;;;4958502;28;20118;-86
2021/03/12 17:17:33;;;;;;;163.93;108.75;;;256.20;2073.60;;;;;;4958113;28;20027;-86
2021/03/12 17:19:59;;;;;;;186.02;120.20;;;256.10;2124.80;;;;;;4957308;28;20077;-84
2021/03/12 17:22:25;;;;;;;166.00;104.63;;;256.00;2073.60;;;;;;4958096;28;20031;-87
2021/03/12 17:24:51;;;;;;;113.30;76.43;;;231.30;2124.80;;;;;;4959718;28;20057;-87
2021/03/12 17:27:18;;;;;;;110.03;72.82;;;231.30;2124.80;;;;;;4958672;28;20054;-86
2021/03/12 17:29:43;;;;;;;106.10;71.22;;;231.20;2124.80;;;;;;4957703;28;20033;-89
2021/03/12 17:32:12;;;;;;;109.53;74.50;;;231.10;2124.80;;;;;;4957625;28;20114;-87
2021/03/12 17:34:38;;;;;;;119.47;81.28;;;231.00;2201.60;;;;;;4957752;28;20089;-86
2021/03/12 17:37:03;;;;;;;111.45;72.40;;;231.00;2201.60;;;;;;4957556;28;20027;-87
2021/03/12 17:39:29;;;;;;;117.72;76.32;;;231.00;2201.60;;;;;;4957326;28;20023;-86
2021/03/12 17:41:55;;;;;;;108.85;69.82;;;230.90;2201.60;;;;;;4957594;28;20029;-87
2021/03/12 17:44:21;;;;;;;157.35;105.40;;;230.90;2227.20;;;;;;4958211;28;20058;-85
2021/03/12 17:46:47;;;;;;;161.80;109.93;;;230.80;2201.60;;;;;;4957416;28;20504;-86
2021/03/12 17:49:15;;;;;;;155.07;108.03;;;230.70;2227.20;;;;;;4957567;28;20030;-85
2021/03/12 17:51:42;;;;;;;183.07;117.03;;;230.80;2227.20;;;;;;4957480;28;20105;-85
2021/03/12 17:54:08;;;;;;;129.35;88.07;;;230.70;2252.80;;;;;;4957068;28;20035;-85
2021/03/12 17:56:34;;;;;;;105.70;75.07;;;230.60;2252.80;;;;;;4958334;28;20555;-86
2021/03/12 17:59:00;;;;;;;101.00;69.03;;;230.50;2252.80;;;;;;4957469;28;20110;-86
2021/03/12 18:01:26;;;;;;;203.88;112.72;;;230.40;2252.80;;;;;;4957096;28;20067;-83
2021/03/12 18:03:52;;;;;;;269.65;136.57;;;205.70;2252.80;;;;;;4951939;28;20032;-85
2021/03/12 18:06:18;;;;;;;331.95;187.23;;;205.70;2252.80;;;;;;4947146;28;20114;-84
2021/03/12 18:08:43;;;;;;;219.20;133.65;;;205.70;2252.80;;;;;;4936290;29;20622;-85
2021/03/12 18:11:10;;;;;;;196.55;129.73;;;205.60;2252.80;;;;;;4937076;29;20067;-84
2021/03/12 18:13:36;;;;;;;178.20;117.60;;;205.60;2252.80;;;;;;4938340;29;20118;-85
2021/03/12 18:16:02;;;;;;;294.13;165.13;;;205.40;2252.80;;;;;;4937883;29;20170;-85
2021/03/12 18:18:29;;;;;;;288.13;155.38;;;205.30;2252.80;;;;;;4938368;29;20055;-93
2021/03/12 18:20:56;;;;;;;284.05;151.38;;;205.40;2252.80;;;;;;4938295;29;20027;-90
2021/03/12 18:23:22;;;;;;;259.70;140.02;;;205.20;2252.80;;;;;;4938151;29;20039;-90
2021/03/12 18:25:49;;;;;;;217.43;126.30;;;205.30;2252.80;;;;;;4938703;29;20499;-89
2021/03/12 18:28:15;;;;;;;188.20;118.70;;;205.20;2252.80;;;;;;4938759;29;20031;-90
2021/03/12 18:30:42;;;;;;;213.77;144.10;;;205.20;2252.80;;;;;;4938511;29;20063;-89
2021/03/12 18:33:08;;;;;;;208.88;141.70;;;205.00;2252.80;;;;;;4940698;29;20035;-89
2021/03/12 18:35:35;;;;;;;149.43;111.03;;;205.00;2252.80;;;;;;4940979;29;20028;-88
2021/03/12 18:38:02;;;;;;;172.52;116.32;;;205.00;2252.80;;;;;;4940944;29;20023;-89
2021/03/12 18:40:48;;;;;;;172.18;119.93;;;205.00;2252.80;;;;;;4941386;29;20389;-88
2021/03/12 18:43:58;;;;;;;131.20;94.15;;;204.80;2252.80;;;;;;4939710;29;20486;-89
2021/03/12 18:46:45;;;;;;;138.48;93.30;;;204.80;2252.80;;;;;;4947918;29;20027;-87